sensor_id;sensor_type;location;lat;lon;timestamp;P1;durP1;ratioP1;P2;durP2;ratioP2
34146;SDS011;20423;49.448;9.056;2022-12-07T00:00:50;116.68;;;33.45;;
34146;SDS011;20423;49.448;9.056;2022-12-07T00:03:15;106.88;;;31.23;;
34146;SDS011;20423;49.448;9.056;2022-12-07T00:05:41;135.48;;;34.60;;
34146;SDS011;20423;49.448;9.056;2022-12-07T00:08:07;123.22;;;32.92;;
34146;SDS011;20423;49.448;9.056;2022-12-07T00:10:33;102.70;;;31.83;;
34146;SDS011;20423;49.448;9.056;2022-12-07T00:12:59;120.07;;;34.55;;
34146;SDS011;20423;49.448;9.056;2022-12-07T00:15:24;115.15;;;33.90;;
34146;SDS011;20423;49.448;9.056;2022-12-07T00:17:50;122.93;;;34.17;;
34146;SDS011;20423;49.448;9.056;2022-12-07T00:20:16;115.70;;;33.15;;
34146;SDS011;20423;49.448;9.056;2022-12-07T00:22:41;125.63;;;33.63;;
34146;SDS011;20423;49.448;9.056;2022-12-07T00:25:07;115.20;;;32.72;;
34146;SDS011;20423;49.448;9.056;2022-12-07T00:27:33;105.50;;;31.33;;
34146;SDS011;20423;49.448;9.056;2022-12-07T00:29:59;128.77;;;33.75;;
34146;SDS011;20423;49.448;9.056;2022-12-07T00:32:24;123.32;;;32.70;;
34146;SDS011;20423;49.448;9.056;2022-12-07T00:34:50;128.77;;;33.42;;
34146;SDS011;20423;49.448;9.056;2022-12-07T00:37:16;121.53;;;33.88;;
34146;SDS011;20423;49.448;9.056;2022-12-07T00:39:41;125.07;;;33.40;;
34146;SDS011;20423;49.448;9.056;2022-12-07T00:42:07;128.85;;;36.47;;
34146;SDS011;20423;49.448;9.056;2022-12-07T00:44:32;115.65;;;33.90;;
34146;SDS011;20423;49.448;9.056;2022-12-07T00:46:58;134.02;;;34.55;;
34146;SDS011;20423;49.448;9.056;2022-12-07T00:49:24;124.75;;;34.88;;
34146;SDS011;20423;49.448;9.056;2022-12-07T00:51:49;114.22;;;34.60;;
34146;SDS011;20423;49.448;9.056;2022-12-07T00:54:15;116.28;;;32.45;;
34146;SDS011;20423;49.448;9.056;2022-12-07T00:56:41;124.03;;;35.63;;
34146;SDS011;20423;49.448;9.056;2022-12-07T00:59:06;127.45;;;36.78;;
34146;SDS011;20423;49.448;9.056;2022-12-07T01:01:36;129.30;;;38.65;;
34146;SDS011;20423;49.448;9.056;2022-12-07T01:04:02;129.68;;;36.45;;
34146;SDS011;20423;49.448;9.056;2022-12-07T01:06:28;139.27;;;36.88;;
34146;SDS011;20423;49.448;9.056;2022-12-07T01:08:54;162.55;;;43.95;;
34146;SDS011;20423;49.448;9.056;2022-12-07T01:11:22;156.10;;;42.53;;
34146;SDS011;20423;49.448;9.056;2022-12-07T01:13:50;161.70;;;46.05;;
34146;SDS011;20423;49.448;9.056;2022-12-07T01:16:16;175.15;;;48.03;;
34146;SDS011;20423;49.448;9.056;2022-12-07T01:18:45;188.02;;;52.33;;
34146;SDS011;20423;49.448;9.056;2022-12-07T01:21:14;151.50;;;42.30;;
34146;SDS011;20423;49.448;9.056;2022-12-07T01:23:50;165.00;;;41.35;;
34146;SDS011;20423;49.448;9.056;2022-12-07T01:26:21;156.75;;;38.75;;
34146;SDS011;20423;49.448;9.056;2022-12-07T01:28:48;146.10;;;38.40;;
34146;SDS011;20423;49.448;9.056;2022-12-07T01:31:15;136.40;;;37.63;;
34146;SDS011;20423;49.448;9.056;2022-12-07T01:33:43;139.07;;;36.47;;
34146;SDS011;20423;49.448;9.056;2022-12-07T01:36:15;137.25;;;37.03;;
34146;SDS011;20423;49.448;9.056;2022-12-07T01:38:42;163.55;;;38.67;;
34146;SDS011;20423;49.448;9.056;2022-12-07T01:41:09;151.00;;;38.72;;
34146;SDS011;20423;49.448;9.056;2022-12-07T01:43:36;155.82;;;39.20;;
34146;SDS011;20423;49.448;9.056;2022-12-07T01:46:02;138.15;;;38.35;;
34146;SDS011;20423;49.448;9.056;2022-12-07T01:48:37;148.63;;;38.53;;
34146;SDS011;20423;49.448;9.056;2022-12-07T01:51:10;157.85;;;39.53;;
34146;SDS011;20423;49.448;9.056;2022-12-07T01:53:39;149.07;;;39.30;;
34146;SDS011;20423;49.448;9.056;2022-12-07T01:56:08;159.60;;;41.67;;
34146;SDS011;20423;49.448;9.056;2022-12-07T01:58:40;177.48;;;44.20;;
34146;SDS011;20423;49.448;9.056;2022-12-07T02:01:06;140.70;;;40.13;;
34146;SDS011;20423;49.448;9.056;2022-12-07T02:03:39;149.32;;;39.50;;
34146;SDS011;20423;49.448;9.056;2022-12-07T02:06:07;147.80;;;39.83;;
34146;SDS011;20423;49.448;9.056;2022-12-07T02:08:34;155.38;;;40.45;;
34146;SDS011;20423;49.448;9.056;2022-12-07T02:11:01;143.52;;;41.35;;
34146;SDS011;20423;49.448;9.056;2022-12-07T02:13:29;157.88;;;40.05;;
34146;SDS011;20423;49.448;9.056;2022-12-07T02:19:50;150.43;;;38.70;;
34146;SDS011;20423;49.448;9.056;2022-12-07T02:27:14;141.55;;;37.92;;
34146;SDS011;20423;49.448;9.056;2022-12-07T02:30:00;158.15;;;37.78;;
34146;SDS011;20423;49.448;9.056;2022-12-07T02:32:51;151.93;;;38.83;;
34146;SDS011;20423;49.448;9.056;2022-12-07T02:35:20;152.32;;;39.25;;
34146;SDS011;20423;49.448;9.056;2022-12-07T02:40:43;153.25;;;40.63;;
34146;SDS011;20423;49.448;9.056;2022-12-07T02:43:19;154.85;;;41.03;;
34146;SDS011;20423;49.448;9.056;2022-12-07T02:45:53;145.77;;;37.45;;
34146;SDS011;20423;49.448;9.056;2022-12-07T02:48:23;162.60;;;38.88;;
34146;SDS011;20423;49.448;9.056;2022-12-07T02:50:51;158.30;;;39.30;;
34146;SDS011;20423;49.448;9.056;2022-12-07T02:53:28;166.90;;;41.50;;
34146;SDS011;20423;49.448;9.056;2022-12-07T02:55:56;177.98;;;40.15;;
34146;SDS011;20423;49.448;9.056;2022-12-07T02:58:26;157.38;;;38.72;;
34146;SDS011;20423;49.448;9.056;2022-12-07T03:01:20;144.68;;;37.40;;
34146;SDS011;20423;49.448;9.056;2022-12-07T03:03:58;161.65;;;39.00;;
34146;SDS011;20423;49.448;9.056;2022-12-07T03:06:49;177.65;;;43.40;;
34146;SDS011;20423;49.448;9.056;2022-12-07T03:09:25;184.88;;;42.15;;
34146;SDS011;20423;49.448;9.056;2022-12-07T03:12:01;182.10;;;42.00;;
34146;SDS011;20423;49.448;9.056;2022-12-07T03:15:11;200.57;;;48.22;;
34146;SDS011;20423;49.448;9.056;2022-12-07T03:17:46;224.43;;;49.00;;
34146;SDS011;20423;49.448;9.056;2022-12-07T03:20:15;197.18;;;47.17;;
34146;SDS011;20423;49.448;9.056;2022-12-07T03:22:46;195.15;;;46.25;;
34146;SDS011;20423;49.448;9.056;2022-12-07T03:25:13;200.80;;;50.40;;
34146;SDS011;20423;49.448;9.056;2022-12-07T03:27:45;168.10;;;44.13;;
34146;SDS011;20423;49.448;9.056;2022-12-07T03:30:47;190.90;;;45.95;;
34146;SDS011;20423;49.448;9.056;2022-12-07T03:33:22;210.13;;;46.47;;
34146;SDS011;20423;49.448;9.056;2022-12-07T03:36:00;180.93;;;43.88;;
34146;SDS011;20423;49.448;9.056;2022-12-07T03:42:18;177.65;;;46.38;;
34146;SDS011;20423;49.448;9.056;2022-12-07T03:44:44;166.85;;;42.65;;
34146;SDS011;20423;49.448;9.056;2022-12-07T03:57:33;154.52;;;41.13;;
34146;SDS011;20423;49.448;9.056;2022-12-07T04:00:00;154.10;;;38.67;;
34146;SDS011;20423;49.448;9.056;2022-12-07T04:02:37;157.50;;;39.90;;
34146;SDS011;20423;49.448;9.056;2022-12-07T04:05:03;140.80;;;37.85;;
34146;SDS011;20423;49.448;9.056;2022-12-07T04:07:30;139.30;;;37.15;;
34146;SDS011;20423;49.448;9.056;2022-12-07T04:09:56;131.48;;;35.08;;
34146;SDS011;20423;49.448;9.056;2022-12-07T04:12:22;116.40;;;33.33;;
34146;SDS011;20423;49.448;9.056;2022-12-07T04:14:48;134.85;;;34.78;;
34146;SDS011;20423;49.448;9.056;2022-12-07T04:17:14;131.30;;;34.20;;
34146;SDS011;20423;49.448;9.056;2022-12-07T04:19:40;123.85;;;36.03;;
34146;SDS011;20423;49.448;9.056;2022-12-07T04:22:06;125.55;;;34.92;;
34146;SDS011;20423;49.448;9.056;2022-12-07T04:24:32;110.15;;;32.38;;
34146;SDS011;20423;49.448;9.056;2022-12-07T04:26:58;112.53;;;32.60;;
34146;SDS011;20423;49.448;9.056;2022-12-07T04:29:24;110.30;;;32.22;;
34146;SDS011;20423;49.448;9.056;2022-12-07T04:31:50;125.38;;;33.65;;
34146;SDS011;20423;49.448;9.056;2022-12-07T04:34:16;118.13;;;35.33;;
34146;SDS011;20423;49.448;9.056;2022-12-07T04:36:43;109.43;;;33.55;;
34146;SDS011;20423;49.448;9.056;2022-12-07T04:39:22;114.00;;;32.08;;
34146;SDS011;20423;49.448;9.056;2022-12-07T04:41:52;100.65;;;30.85;;
34146;SDS011;20423;49.448;9.056;2022-12-07T04:44:18;99.25;;;32.85;;
34146;SDS011;20423;49.448;9.056;2022-12-07T04:46:45;108.60;;;32.13;;
34146;SDS011;20423;49.448;9.056;2022-12-07T04:49:12;89.45;;;28.80;;
34146;SDS011;20423;49.448;9.056;2022-12-07T04:51:38;78.72;;;26.80;;
34146;SDS011;20423;49.448;9.056;2022-12-07T04:54:04;86.43;;;26.58;;
34146;SDS011;20423;49.448;9.056;2022-12-07T04:56:30;80.55;;;23.98;;
34146;SDS011;20423;49.448;9.056;2022-12-07T04:58:56;70.50;;;24.67;;
34146;SDS011;20423;49.448;9.056;2022-12-07T05:01:22;73.20;;;24.13;;
34146;SDS011;20423;49.448;9.056;2022-12-07T05:03:48;62.72;;;22.73;;
34146;SDS011;20423;49.448;9.056;2022-12-07T05:06:14;67.32;;;22.23;;
34146;SDS011;20423;49.448;9.056;2022-12-07T05:08:40;69.15;;;24.23;;
34146;SDS011;20423;49.448;9.056;2022-12-07T05:11:06;79.72;;;24.92;;
34146;SDS011;20423;49.448;9.056;2022-12-07T05:13:39;65.22;;;23.63;;
34146;SDS011;20423;49.448;9.056;2022-12-07T05:19:14;70.85;;;24.58;;
34146;SDS011;20423;49.448;9.056;2022-12-07T05:21:41;77.57;;;26.08;;
34146;SDS011;20423;49.448;9.056;2022-12-07T05:24:07;75.90;;;26.85;;
34146;SDS011;20423;49.448;9.056;2022-12-07T05:26:35;76.75;;;27.92;;
34146;SDS011;20423;49.448;9.056;2022-12-07T05:29:00;83.88;;;27.98;;
34146;SDS011;20423;49.448;9.056;2022-12-07T05:31:26;70.70;;;26.15;;
34146;SDS011;20423;49.448;9.056;2022-12-07T05:33:53;69.38;;;24.23;;
34146;SDS011;20423;49.448;9.056;2022-12-07T05:36:19;74.05;;;26.20;;
34146;SDS011;20423;49.448;9.056;2022-12-07T05:38:44;74.88;;;24.25;;
34146;SDS011;20423;49.448;9.056;2022-12-07T05:41:12;157.48;;;46.50;;
34146;SDS011;20423;49.448;9.056;2022-12-07T05:43:58;97.07;;;31.02;;
34146;SDS011;20423;49.448;9.056;2022-12-07T05:46:24;79.68;;;26.38;;
34146;SDS011;20423;49.448;9.056;2022-12-07T05:48:50;78.45;;;25.08;;
34146;SDS011;20423;49.448;9.056;2022-12-07T05:51:16;69.97;;;25.67;;
34146;SDS011;20423;49.448;9.056;2022-12-07T05:53:41;70.20;;;25.60;;
34146;SDS011;20423;49.448;9.056;2022-12-07T05:56:07;74.90;;;26.10;;
34146;SDS011;20423;49.448;9.056;2022-12-07T05:58:33;71.68;;;23.85;;
34146;SDS011;20423;49.448;9.056;2022-12-07T06:01:17;71.97;;;26.77;;
34146;SDS011;20423;49.448;9.056;2022-12-07T06:03:43;70.35;;;23.33;;
34146;SDS011;20423;49.448;9.056;2022-12-07T06:06:09;78.28;;;24.13;;
34146;SDS011;20423;49.448;9.056;2022-12-07T06:08:35;65.63;;;21.73;;
34146;SDS011;20423;49.448;9.056;2022-12-07T06:11:01;55.05;;;21.60;;
34146;SDS011;20423;49.448;9.056;2022-12-07T06:13:45;65.72;;;24.02;;
34146;SDS011;20423;49.448;9.056;2022-12-07T06:16:10;63.08;;;21.20;;
34146;SDS011;20423;49.448;9.056;2022-12-07T06:18:36;77.57;;;28.33;;
34146;SDS011;20423;49.448;9.056;2022-12-07T06:21:02;76.10;;;28.65;;
34146;SDS011;20423;49.448;9.056;2022-12-07T06:23:27;65.55;;;26.15;;
34146;SDS011;20423;49.448;9.056;2022-12-07T06:25:53;126.82;;;52.28;;
34146;SDS011;20423;49.448;9.056;2022-12-07T06:28:19;53.72;;;21.52;;
34146;SDS011;20423;49.448;9.056;2022-12-07T06:30:44;77.20;;;32.47;;
34146;SDS011;20423;49.448;9.056;2022-12-07T06:33:10;94.57;;;39.08;;
34146;SDS011;20423;49.448;9.056;2022-12-07T06:35:35;76.88;;;30.30;;
34146;SDS011;20423;49.448;9.056;2022-12-07T06:38:01;52.00;;;19.75;;
34146;SDS011;20423;49.448;9.056;2022-12-07T06:40:27;48.88;;;17.45;;
34146;SDS011;20423;49.448;9.056;2022-12-07T06:42:52;52.65;;;17.10;;
34146;SDS011;20423;49.448;9.056;2022-12-07T06:45:18;44.50;;;17.00;;
34146;SDS011;20423;49.448;9.056;2022-12-07T06:47:44;49.40;;;18.02;;
34146;SDS011;20423;49.448;9.056;2022-12-07T06:50:10;47.70;;;18.70;;
34146;SDS011;20423;49.448;9.056;2022-12-07T06:52:35;53.83;;;18.70;;
34146;SDS011;20423;49.448;9.056;2022-12-07T06:55:01;49.33;;;18.73;;
34146;SDS011;20423;49.448;9.056;2022-12-07T06:57:27;53.10;;;18.60;;
34146;SDS011;20423;49.448;9.056;2022-12-07T06:59:52;47.58;;;16.67;;
34146;SDS011;20423;49.448;9.056;2022-12-07T07:02:18;47.67;;;15.68;;
34146;SDS011;20423;49.448;9.056;2022-12-07T07:04:44;44.47;;;16.05;;
34146;SDS011;20423;49.448;9.056;2022-12-07T07:07:10;43.35;;;16.35;;
34146;SDS011;20423;49.448;9.056;2022-12-07T07:09:35;47.25;;;17.52;;
34146;SDS011;20423;49.448;9.056;2022-12-07T07:12:01;52.28;;;18.80;;
34146;SDS011;20423;49.448;9.056;2022-12-07T07:14:27;65.68;;;23.02;;
34146;SDS011;20423;49.448;9.056;2022-12-07T07:16:53;68.75;;;22.92;;
34146;SDS011;20423;49.448;9.056;2022-12-07T07:19:18;73.82;;;29.52;;
34146;SDS011;20423;49.448;9.056;2022-12-07T07:21:44;72.30;;;27.25;;
34146;SDS011;20423;49.448;9.056;2022-12-07T07:24:22;67.65;;;25.25;;
34146;SDS011;20423;49.448;9.056;2022-12-07T07:27:04;63.63;;;23.52;;
34146;SDS011;20423;49.448;9.056;2022-12-07T07:29:30;66.80;;;24.48;;
34146;SDS011;20423;49.448;9.056;2022-12-07T07:31:55;64.18;;;23.33;;
34146;SDS011;20423;49.448;9.056;2022-12-07T07:34:21;64.35;;;23.08;;
34146;SDS011;20423;49.448;9.056;2022-12-07T07:36:47;63.15;;;22.60;;
34146;SDS011;20423;49.448;9.056;2022-12-07T07:39:13;54.03;;;21.70;;
34146;SDS011;20423;49.448;9.056;2022-12-07T07:41:39;61.10;;;23.17;;
34146;SDS011;20423;49.448;9.056;2022-12-07T07:44:11;66.93;;;25.85;;
34146;SDS011;20423;49.448;9.056;2022-12-07T07:46:37;66.13;;;25.45;;
34146;SDS011;20423;49.448;9.056;2022-12-07T07:52:35;63.45;;;23.50;;
34146;SDS011;20423;49.448;9.056;2022-12-07T07:55:01;74.63;;;26.17;;
34146;SDS011;20423;49.448;9.056;2022-12-07T07:57:27;78.35;;;29.00;;
34146;SDS011;20423;49.448;9.056;2022-12-07T07:59:52;67.88;;;27.35;;
34146;SDS011;20423;49.448;9.056;2022-12-07T08:02:18;78.90;;;32.10;;
34146;SDS011;20423;49.448;9.056;2022-12-07T08:04:45;113.40;;;36.00;;
34146;SDS011;20423;49.448;9.056;2022-12-07T08:07:12;214.07;;;80.30;;
34146;SDS011;20423;49.448;9.056;2022-12-07T08:09:38;213.38;;;86.93;;
34146;SDS011;20423;49.448;9.056;2022-12-07T08:12:04;86.65;;;33.75;;
34146;SDS011;20423;49.448;9.056;2022-12-07T08:14:30;73.65;;;27.60;;
34146;SDS011;20423;49.448;9.056;2022-12-07T08:16:56;69.88;;;27.15;;
34146;SDS011;20423;49.448;9.056;2022-12-07T08:19:22;85.28;;;30.17;;
34146;SDS011;20423;49.448;9.056;2022-12-07T08:21:48;78.65;;;30.73;;
34146;SDS011;20423;49.448;9.056;2022-12-07T08:24:14;81.35;;;31.88;;
34146;SDS011;20423;49.448;9.056;2022-12-07T08:26:41;72.07;;;28.20;;
34146;SDS011;20423;49.448;9.056;2022-12-07T08:29:07;76.78;;;28.02;;
34146;SDS011;20423;49.448;9.056;2022-12-07T08:31:33;76.03;;;28.02;;
34146;SDS011;20423;49.448;9.056;2022-12-07T08:33:59;71.05;;;29.63;;
34146;SDS011;20423;49.448;9.056;2022-12-07T08:36:24;83.85;;;32.38;;
34146;SDS011;20423;49.448;9.056;2022-12-07T08:38:50;86.82;;;31.38;;
34146;SDS011;20423;49.448;9.056;2022-12-07T08:41:16;83.13;;;30.35;;
34146;SDS011;20423;49.448;9.056;2022-12-07T08:43:42;77.45;;;30.75;;
34146;SDS011;20423;49.448;9.056;2022-12-07T08:46:09;79.72;;;30.95;;
34146;SDS011;20423;49.448;9.056;2022-12-07T08:48:50;69.43;;;28.67;;
34146;SDS011;20423;49.448;9.056;2022-12-07T08:51:24;73.43;;;30.08;;
34146;SDS011;20423;49.448;9.056;2022-12-07T08:53:50;76.80;;;28.38;;
34146;SDS011;20423;49.448;9.056;2022-12-07T08:56:17;74.97;;;29.15;;
34146;SDS011;20423;49.448;9.056;2022-12-07T08:58:43;70.82;;;28.88;;
34146;SDS011;20423;49.448;9.056;2022-12-07T09:01:09;72.85;;;28.73;;
34146;SDS011;20423;49.448;9.056;2022-12-07T09:03:35;78.05;;;31.92;;
34146;SDS011;20423;49.448;9.056;2022-12-07T09:06:01;84.30;;;32.90;;
34146;SDS011;20423;49.448;9.056;2022-12-07T09:08:29;76.63;;;31.83;;
34146;SDS011;20423;49.448;9.056;2022-12-07T09:10:59;77.95;;;31.23;;
34146;SDS011;20423;49.448;9.056;2022-12-07T09:13:24;69.65;;;27.63;;
34146;SDS011;20423;49.448;9.056;2022-12-07T09:15:50;89.90;;;29.58;;
34146;SDS011;20423;49.448;9.056;2022-12-07T09:18:16;71.53;;;29.67;;
34146;SDS011;20423;49.448;9.056;2022-12-07T09:20:41;77.93;;;29.95;;
34146;SDS011;20423;49.448;9.056;2022-12-07T09:23:07;74.53;;;28.63;;
34146;SDS011;20423;49.448;9.056;2022-12-07T09:25:33;72.82;;;27.65;;
34146;SDS011;20423;49.448;9.056;2022-12-07T09:27:59;64.55;;;27.50;;
34146;SDS011;20423;49.448;9.056;2022-12-07T09:30:25;69.07;;;29.50;;
34146;SDS011;20423;49.448;9.056;2022-12-07T09:32:55;73.10;;;30.67;;
34146;SDS011;20423;49.448;9.056;2022-12-07T09:35:22;68.43;;;27.10;;
34146;SDS011;20423;49.448;9.056;2022-12-07T09:37:49;71.25;;;27.35;;
34146;SDS011;20423;49.448;9.056;2022-12-07T09:40:15;73.05;;;26.45;;
34146;SDS011;20423;49.448;9.056;2022-12-07T09:42:44;63.78;;;25.70;;
34146;SDS011;20423;49.448;9.056;2022-12-07T09:45:19;73.50;;;25.77;;
34146;SDS011;20423;49.448;9.056;2022-12-07T09:47:51;64.10;;;25.45;;
34146;SDS011;20423;49.448;9.056;2022-12-07T09:53:26;73.07;;;28.42;;
34146;SDS011;20423;49.448;9.056;2022-12-07T09:55:54;84.72;;;29.00;;
34146;SDS011;20423;49.448;9.056;2022-12-07T09:58:22;72.45;;;29.75;;
34146;SDS011;20423;49.448;9.056;2022-12-07T10:01:09;70.30;;;30.95;;
34146;SDS011;20423;49.448;9.056;2022-12-07T10:03:42;76.28;;;30.40;;
34146;SDS011;20423;49.448;9.056;2022-12-07T10:06:17;71.35;;;27.52;;
34146;SDS011;20423;49.448;9.056;2022-12-07T10:08:43;71.65;;;29.48;;
34146;SDS011;20423;49.448;9.056;2022-12-07T10:11:10;75.25;;;28.73;;
34146;SDS011;20423;49.448;9.056;2022-12-07T10:13:38;81.45;;;32.92;;
34146;SDS011;20423;49.448;9.056;2022-12-07T10:16:06;80.30;;;31.30;;
34146;SDS011;20423;49.448;9.056;2022-12-07T10:18:52;69.78;;;29.08;;
34146;SDS011;20423;49.448;9.056;2022-12-07T10:21:20;78.30;;;29.77;;
34146;SDS011;20423;49.448;9.056;2022-12-07T10:24:04;83.60;;;33.53;;
34146;SDS011;20423;49.448;9.056;2022-12-07T10:34:49;112.20;;;36.45;;
34146;SDS011;20423;49.448;9.056;2022-12-07T10:37:17;162.05;;;37.65;;
34146;SDS011;20423;49.448;9.056;2022-12-07T10:43:23;85.63;;;30.63;;
34146;SDS011;20423;49.448;9.056;2022-12-07T10:57:11;120.30;;;46.05;;
34146;SDS011;20423;49.448;9.056;2022-12-07T11:00:09;86.93;;;32.60;;
34146;SDS011;20423;49.448;9.056;2022-12-07T11:13:29;75.93;;;35.65;;
34146;SDS011;20423;49.448;9.056;2022-12-07T11:27:08;62.95;;;30.08;;
34146;SDS011;20423;49.448;9.056;2022-12-07T11:29:40;75.65;;;36.00;;
34146;SDS011;20423;49.448;9.056;2022-12-07T11:35:08;63.20;;;28.20;;
34146;SDS011;20423;49.448;9.056;2022-12-07T11:37:44;51.80;;;24.48;;
34146;SDS011;20423;49.448;9.056;2022-12-07T11:45:46;49.22;;;23.83;;
34146;SDS011;20423;49.448;9.056;2022-12-07T11:48:19;47.03;;;21.85;;
34146;SDS011;20423;49.448;9.056;2022-12-07T11:50:48;57.28;;;26.00;;
34146;SDS011;20423;49.448;9.056;2022-12-07T12:09:11;46.60;;;22.52;;
34146;SDS011;20423;49.448;9.056;2022-12-07T12:17:37;49.25;;;23.88;;
34146;SDS011;20423;49.448;9.056;2022-12-07T12:27:54;55.28;;;25.75;;
34146;SDS011;20423;49.448;9.056;2022-12-07T12:30:36;55.05;;;28.88;;
34146;SDS011;20423;49.448;9.056;2022-12-07T12:33:24;57.08;;;27.63;;
34146;SDS011;20423;49.448;9.056;2022-12-07T12:50:43;52.53;;;24.55;;
34146;SDS011;20423;49.448;9.056;2022-12-07T12:53:13;55.58;;;26.70;;
34146;SDS011;20423;49.448;9.056;2022-12-07T12:58:39;48.35;;;24.30;;
34146;SDS011;20423;49.448;9.056;2022-12-07T13:03:51;45.55;;;23.05;;
34146;SDS011;20423;49.448;9.056;2022-12-07T13:06:20;44.80;;;21.90;;
34146;SDS011;20423;49.448;9.056;2022-12-07T13:11:31;53.22;;;23.50;;
34146;SDS011;20423;49.448;9.056;2022-12-07T13:20:01;39.80;;;20.88;;
34146;SDS011;20423;49.448;9.056;2022-12-07T13:25:11;45.25;;;22.88;;
34146;SDS011;20423;49.448;9.056;2022-12-07T13:28:01;53.03;;;24.50;;
34146;SDS011;20423;49.448;9.056;2022-12-07T13:35:48;43.80;;;20.55;;
34146;SDS011;20423;49.448;9.056;2022-12-07T13:41:01;50.53;;;22.27;;
34146;SDS011;20423;49.448;9.056;2022-12-07T13:43:48;59.70;;;27.52;;
34146;SDS011;20423;49.448;9.056;2022-12-07T13:46:14;57.70;;;27.50;;
34146;SDS011;20423;49.448;9.056;2022-12-07T13:48:46;52.70;;;23.80;;
34146;SDS011;20423;49.448;9.056;2022-12-07T13:51:24;49.35;;;23.85;;
34146;SDS011;20423;49.448;9.056;2022-12-07T13:53:52;53.33;;;22.90;;
34146;SDS011;20423;49.448;9.056;2022-12-07T13:56:26;56.55;;;27.73;;
34146;SDS011;20423;49.448;9.056;2022-12-07T13:58:57;52.70;;;26.45;;
34146;SDS011;20423;49.448;9.056;2022-12-07T14:01:23;59.15;;;29.02;;
34146;SDS011;20423;49.448;9.056;2022-12-07T14:03:50;62.25;;;29.60;;
34146;SDS011;20423;49.448;9.056;2022-12-07T14:06:25;65.45;;;30.15;;
34146;SDS011;20423;49.448;9.056;2022-12-07T14:11:47;56.03;;;27.27;;
34146;SDS011;20423;49.448;9.056;2022-12-07T14:14:19;67.10;;;29.83;;
34146;SDS011;20423;49.448;9.056;2022-12-07T14:16:58;61.97;;;30.15;;
34146;SDS011;20423;49.448;9.056;2022-12-07T14:19:54;60.95;;;30.33;;
34146;SDS011;20423;49.448;9.056;2022-12-07T14:22:32;67.97;;;30.02;;
34146;SDS011;20423;49.448;9.056;2022-12-07T14:27:51;66.55;;;32.38;;
34146;SDS011;20423;49.448;9.056;2022-12-07T14:30:23;71.05;;;29.90;;
34146;SDS011;20423;49.448;9.056;2022-12-07T14:33:12;65.15;;;31.02;;
34146;SDS011;20423;49.448;9.056;2022-12-07T14:35:37;72.97;;;31.65;;
34146;SDS011;20423;49.448;9.056;2022-12-07T14:38:05;64.25;;;30.00;;
34146;SDS011;20423;49.448;9.056;2022-12-07T14:40:31;66.65;;;30.13;;
34146;SDS011;20423;49.448;9.056;2022-12-07T14:43:00;70.47;;;31.92;;
34146;SDS011;20423;49.448;9.056;2022-12-07T14:45:27;60.83;;;29.92;;
34146;SDS011;20423;49.448;9.056;2022-12-07T14:47:53;69.45;;;32.17;;
34146;SDS011;20423;49.448;9.056;2022-12-07T14:50:19;62.58;;;29.33;;
34146;SDS011;20423;49.448;9.056;2022-12-07T14:52:48;64.88;;;29.98;;
34146;SDS011;20423;49.448;9.056;2022-12-07T14:55:25;64.82;;;28.90;;
34146;SDS011;20423;49.448;9.056;2022-12-07T14:57:52;59.95;;;29.63;;
34146;SDS011;20423;49.448;9.056;2022-12-07T15:00:19;68.22;;;31.83;;
34146;SDS011;20423;49.448;9.056;2022-12-07T15:02:46;70.82;;;29.95;;
34146;SDS011;20423;49.448;9.056;2022-12-07T15:05:13;76.35;;;32.65;;
34146;SDS011;20423;49.448;9.056;2022-12-07T15:07:39;75.38;;;36.35;;
34146;SDS011;20423;49.448;9.056;2022-12-07T15:10:05;75.00;;;33.42;;
34146;SDS011;20423;49.448;9.056;2022-12-07T15:12:35;81.75;;;36.60;;
34146;SDS011;20423;49.448;9.056;2022-12-07T15:15:00;81.55;;;35.50;;
34146;SDS011;20423;49.448;9.056;2022-12-07T15:17:26;158.80;;;65.15;;
34146;SDS011;20423;49.448;9.056;2022-12-07T15:19:52;96.60;;;41.17;;
34146;SDS011;20423;49.448;9.056;2022-12-07T15:22:18;103.13;;;42.38;;
34146;SDS011;20423;49.448;9.056;2022-12-07T15:24:43;86.63;;;39.97;;
34146;SDS011;20423;49.448;9.056;2022-12-07T15:27:09;97.57;;;40.45;;
34146;SDS011;20423;49.448;9.056;2022-12-07T15:29:34;92.50;;;38.75;;
34146;SDS011;20423;49.448;9.056;2022-12-07T15:32:00;119.50;;;49.97;;
34146;SDS011;20423;49.448;9.056;2022-12-07T15:34:29;118.28;;;44.92;;
34146;SDS011;20423;49.448;9.056;2022-12-07T15:36:56;99.15;;;42.28;;
34146;SDS011;20423;49.448;9.056;2022-12-07T15:39:22;95.13;;;38.58;;
34146;SDS011;20423;49.448;9.056;2022-12-07T15:41:48;107.30;;;48.17;;
34146;SDS011;20423;49.448;9.056;2022-12-07T15:44:14;107.57;;;45.60;;
34146;SDS011;20423;49.448;9.056;2022-12-07T15:46:58;96.55;;;39.33;;
34146;SDS011;20423;49.448;9.056;2022-12-07T15:49:24;91.32;;;37.70;;
34146;SDS011;20423;49.448;9.056;2022-12-07T15:51:50;112.60;;;45.92;;
34146;SDS011;20423;49.448;9.056;2022-12-07T15:54:19;103.53;;;43.60;;
34146;SDS011;20423;49.448;9.056;2022-12-07T15:56:46;103.70;;;40.42;;
34146;SDS011;20423;49.448;9.056;2022-12-07T15:59:12;114.15;;;43.80;;
34146;SDS011;20423;49.448;9.056;2022-12-07T16:01:38;84.07;;;34.42;;
34146;SDS011;20423;49.448;9.056;2022-12-07T16:04:03;100.55;;;37.10;;
34146;SDS011;20423;49.448;9.056;2022-12-07T16:06:29;95.70;;;37.67;;
34146;SDS011;20423;49.448;9.056;2022-12-07T16:08:55;91.55;;;36.13;;
34146;SDS011;20423;49.448;9.056;2022-12-07T16:11:20;97.07;;;36.53;;
34146;SDS011;20423;49.448;9.056;2022-12-07T16:13:47;78.05;;;31.63;;
34146;SDS011;20423;49.448;9.056;2022-12-07T16:16:13;90.40;;;33.45;;
34146;SDS011;20423;49.448;9.056;2022-12-07T16:18:41;99.60;;;36.20;;
34146;SDS011;20423;49.448;9.056;2022-12-07T16:21:08;81.57;;;34.00;;
34146;SDS011;20423;49.448;9.056;2022-12-07T16:23:34;98.00;;;36.33;;
34146;SDS011;20423;49.448;9.056;2022-12-07T16:26:07;85.22;;;34.05;;
34146;SDS011;20423;49.448;9.056;2022-12-07T16:28:38;96.13;;;33.70;;
34146;SDS011;20423;49.448;9.056;2022-12-07T16:31:04;88.72;;;36.25;;
34146;SDS011;20423;49.448;9.056;2022-12-07T16:33:35;92.07;;;35.50;;
34146;SDS011;20423;49.448;9.056;2022-12-07T16:36:03;94.93;;;35.28;;
34146;SDS011;20423;49.448;9.056;2022-12-07T16:38:29;91.75;;;36.38;;
34146;SDS011;20423;49.448;9.056;2022-12-07T16:40:55;98.13;;;37.28;;
34146;SDS011;20423;49.448;9.056;2022-12-07T16:43:21;90.43;;;36.40;;
34146;SDS011;20423;49.448;9.056;2022-12-07T16:45:47;92.43;;;35.65;;
34146;SDS011;20423;49.448;9.056;2022-12-07T16:48:13;98.60;;;37.08;;
34146;SDS011;20423;49.448;9.056;2022-12-07T16:50:40;94.63;;;35.20;;
34146;SDS011;20423;49.448;9.056;2022-12-07T16:53:07;100.63;;;36.97;;
34146;SDS011;20423;49.448;9.056;2022-12-07T16:55:39;90.85;;;35.47;;
34146;SDS011;20423;49.448;9.056;2022-12-07T16:58:07;82.93;;;32.97;;
34146;SDS011;20423;49.448;9.056;2022-12-07T17:00:33;95.30;;;37.72;;
34146;SDS011;20423;49.448;9.056;2022-12-07T17:02:59;94.43;;;34.65;;
34146;SDS011;20423;49.448;9.056;2022-12-07T17:05:25;89.40;;;36.78;;
34146;SDS011;20423;49.448;9.056;2022-12-07T17:07:53;90.75;;;35.42;;
34146;SDS011;20423;49.448;9.056;2022-12-07T17:10:19;92.32;;;35.38;;